createdAt,value
2016-06-06T08:40:10.949Z,42.49
2016-06-06T08:41:10.967Z,42.19
2016-06-06T08:42:11.017Z,41.83
2016-06-06T08:43:11.036Z,41.63
2016-06-06T08:44:11.085Z,41.63
2016-06-06T08:45:11.103Z,41.53
2016-06-06T08:46:11.121Z,41.55
2016-06-06T08:47:11.186Z,41.36
2016-06-06T08:48:11.189Z,40.97
2016-06-06T08:49:11.208Z,40.58
2016-06-06T08:50:11.241Z,40.48
2016-06-06T08:51:11.369Z,40.21
2016-06-06T08:52:11.310Z,40.09
2016-06-06T08:53:11.343Z,40.11
2016-06-06T08:54:11.362Z,39.82
2016-06-06T08:55:11.396Z,39.82
2016-06-06T08:56:11.273Z,39.34
2016-06-06T08:57:11.479Z,39.65
2016-06-06T08:58:11.512Z,39.16
2016-06-06T08:59:11.923Z,39.16
2016-06-06T09:00:11.596Z,38.87
2016-06-06T09:01:11.584Z,39.06
2016-06-06T09:02:11.634Z,38.49
2016-06-06T09:03:11.651Z,38.59
2016-06-06T09:04:11.670Z,38.69
2016-06-06T09:05:11.767Z,38.59
2016-06-06T09:06:11.737Z,37.91
2016-06-06T09:07:11.772Z,38.12
2016-06-06T09:08:11.805Z,37.83
2016-06-06T09:09:11.825Z,38.12
2016-06-06T09:10:11.873Z,37.93
2016-06-06T09:11:11.892Z,37.45
2016-06-06T09:12:11.926Z,37.25
2016-06-06T09:13:11.960Z,37.37
2016-06-06T09:14:12.025Z,37.46
2016-06-06T09:15:12.027Z,37.07
2016-06-06T09:16:12.061Z,37.07
2016-06-06T09:17:11.924Z,36.58
2016-06-06T09:18:12.114Z,36.8
2016-06-06T09:19:12.147Z,35.92
2016-06-06T09:20:12.338Z,36.11
2016-06-06T09:21:12.216Z,35.92
2016-06-06T09:22:12.234Z,35.84
2016-06-06T09:23:12.268Z,35.84
2016-06-06T09:24:12.349Z,35.45
2016-06-06T09:25:12.335Z,35.45
2016-06-06T09:26:12.370Z,34.96
2016-06-06T09:27:12.404Z,34.77
2016-06-06T09:28:12.516Z,34.78
2016-06-06T09:29:13.331Z,34.48
2016-06-06T09:30:12.506Z,34.48
2016-06-06T09:31:12.601Z,34.68
2016-06-06T09:32:12.620Z,34.21
2016-06-06T09:33:12.607Z,34.29
2016-06-06T09:34:12.626Z,34.01
2016-06-06T09:35:12.676Z,34.01
2016-06-06T09:36:12.693Z,33.53
2016-06-06T09:37:12.728Z,33.43
2016-06-06T09:38:12.792Z,33.34
2016-06-06T09:39:12.795Z,33.53
2016-06-06T09:40:12.845Z,33.34
2016-06-06T09:41:12.864Z,33.74
2016-06-06T09:42:12.897Z,33.45
2016-06-06T09:43:12.916Z,32.78
2016-06-06T09:44:12.949Z,32.78
2016-06-06T09:45:12.984Z,32.78
2016-06-06T09:46:13.080Z,32.29
2016-06-06T09:47:13.114Z,32.39
2016-06-06T09:48:13.085Z,32.29
2016-06-06T09:49:13.119Z,32.3
2016-06-06T09:50:13.152Z,31.91
2016-06-06T09:51:13.187Z,31.91
2016-06-06T09:52:13.221Z,31.73
2016-06-06T09:53:13.255Z,31.83
2016-06-06T09:54:13.289Z,31.44
2016-06-06T09:55:13.354Z,31.93
2016-06-06T09:56:13.357Z,31.73
2016-06-06T09:57:13.469Z,31.34
2016-06-06T09:58:13.424Z,31.35
2016-06-06T09:59:13.505Z,31.26
2016-06-06T10:00:13.477Z,30.77
2016-06-06T10:01:13.511Z,30.49
2016-06-06T10:02:13.545Z,30.29
2016-06-06T10:03:13.579Z,29.9
2016-06-06T10:04:13.643Z,30
2016-06-06T10:05:13.646Z,29.41
2016-06-06T10:06:13.681Z,29.62
2016-06-06T10:07:13.715Z,29.03
2016-06-06T10:08:13.764Z,29.33
2016-06-06T10:09:13.782Z,29.22
2016-06-06T10:10:13.816Z,29.34
2016-06-06T10:11:14.038Z,29.14
2016-06-06T10:12:13.884Z,29.24
2016-06-06T10:13:13.917Z,28.85
2016-06-06T10:14:14.015Z,28.96
2016-06-06T10:15:13.986Z,28.37
2016-06-06T10:16:14.036Z,28.57
2016-06-06T10:17:14.053Z,28.27
2016-06-06T10:18:14.103Z,28.17
2016-06-06T10:19:14.122Z,28.19
2016-06-06T10:20:14.172Z,27.99
2016-06-06T10:21:14.189Z,28.19
2016-06-06T10:22:14.317Z,27.89
2016-06-06T10:23:14.367Z,27.6
2016-06-06T10:24:14.354Z,27.4
2016-06-06T10:25:14.325Z,27.12
2016-06-06T10:26:14.360Z,27.32
2016-06-06T10:27:14.409Z,27.42
2016-06-06T10:28:14.442Z,27.22
2016-06-06T10:29:14.711Z,27.14
2016-06-06T10:30:14.510Z,27.12
2016-06-06T10:31:14.545Z,26.84
2016-06-06T10:32:14.578Z,26.84
2016-06-06T10:33:14.628Z,26.84
2016-06-06T10:34:14.662Z,26.74
2016-06-06T10:35:14.524Z,26.85
2016-06-06T10:36:14.714Z,27.05
2016-06-06T10:37:14.764Z,26.85
2016-06-06T10:38:14.625Z,26.46
2016-06-06T10:39:14.817Z,26.17
2016-06-06T10:40:14.850Z,25.88
2016-06-06T10:41:14.884Z,25.98
2016-06-06T10:42:14.949Z,25.29
2016-06-06T10:43:14.967Z,25.79
2016-06-06T10:44:15.330Z,25.4
2016-06-06T10:45:15.036Z,24.71
2016-06-06T10:46:15.069Z,24.41
2016-06-06T10:47:15.103Z,24.71
2016-06-06T10:48:15.137Z,24.71
2016-06-06T10:49:15.171Z,24.52
2016-06-06T10:50:15.205Z,24.32
2016-06-06T10:51:15.255Z,24.33
2016-06-06T10:52:15.289Z,24.33
2016-06-06T10:53:15.322Z,24.73
2016-06-06T10:54:15.357Z,24.82
2016-06-06T10:55:15.391Z,24.33
2016-06-06T10:56:15.424Z,24.13
2016-06-06T10:57:15.474Z,24.13
2016-06-06T10:58:15.492Z,23.94
2016-06-06T10:59:15.385Z,24.13
2016-06-06T11:00:15.435Z,24.04
2016-06-06T11:01:15.610Z,24.53
2016-06-06T11:02:15.643Z,23.94
2016-06-06T11:03:15.677Z,23.64
2016-06-06T11:04:15.712Z,24.15
2016-06-06T11:05:15.762Z,23.75
2016-06-06T11:06:15.780Z,23.46
2016-06-06T11:07:15.813Z,23.36
2016-06-06T11:08:15.862Z,23.06
2016-06-06T11:09:15.897Z,23.16
2016-06-06T11:10:15.931Z,23.46
2016-06-06T11:11:15.965Z,23.16
2016-06-06T11:12:15.998Z,23.07
2016-06-06T11:13:16.033Z,23.17
2016-06-06T11:14:17.817Z,23.37
2016-06-06T11:15:16.178Z,23.37
2016-06-06T11:16:16.150Z,22.69
2016-06-06T11:17:16.183Z,22.78
2016-06-06T11:18:16.234Z,22.69
2016-06-06T11:19:16.533Z,22.7
2016-06-06T11:20:16.302Z,22.6
2016-06-06T11:21:16.336Z,22.6
2016-06-06T11:22:16.369Z,22.31
2016-06-06T11:23:16.403Z,22.02
2016-06-06T11:24:16.438Z,21.53
2016-06-06T11:25:16.486Z,21.42
2016-06-06T11:26:16.521Z,21.44
2016-06-06T11:27:16.555Z,21.14
2016-06-06T11:28:16.588Z,21.24
2016-06-06T11:29:16.638Z,21.04
2016-06-06T11:30:16.875Z,21.04
2016-06-06T11:31:16.706Z,20.45
2016-06-06T11:32:16.740Z,20.76
2016-06-06T11:33:16.790Z,20.55
2016-06-06T11:34:16.901Z,20.65
2016-06-06T11:35:16.873Z,20.46
2016-06-06T11:36:16.891Z,20.36
2016-06-06T11:37:16.941Z,20.16
2016-06-06T11:38:16.975Z,19.96
2016-06-06T11:39:17.009Z,19.98
2016-06-06T11:40:17.058Z,19.68
2016-06-06T11:41:17.076Z,20.07
2016-06-06T11:42:17.111Z,19.98
2016-06-06T11:43:17.160Z,19.98
2016-06-06T11:44:17.053Z,20.08
2016-06-06T11:45:17.259Z,19.98
2016-06-06T11:46:17.356Z,19.98
2016-06-06T11:47:17.295Z,19.39
2016-06-06T11:48:17.345Z,19.39
2016-06-06T11:49:17.380Z,19.39
2016-06-06T11:50:17.414Z,19.59
2016-06-06T11:51:17.447Z,19.39
2016-06-06T11:52:17.528Z,19.29
2016-06-06T11:53:17.531Z,19.59
2016-06-06T11:54:17.596Z,19.29
2016-06-06T11:55:17.630Z,19.1
2016-06-06T11:56:17.649Z,19.2
2016-06-06T11:57:17.682Z,19.2
2016-06-06T11:58:17.716Z,19.3
2016-06-06T11:59:18.093Z,19.3
2016-06-06T12:00:17.644Z,18.9
2016-06-06T12:01:17.833Z,18.52
2016-06-06T12:02:17.867Z,18.52
2016-06-06T12:03:17.918Z,18.42
2016-06-06T12:04:17.952Z,18.52
2016-06-06T12:05:18.001Z,18.52
2016-06-06T12:06:18.034Z,18.23
2016-06-06T12:07:18.069Z,17.83
2016-06-06T12:08:18.102Z,18.03
2016-06-06T12:09:18.136Z,18.03
2016-06-06T12:10:18.187Z,18.23
2016-06-06T12:11:18.220Z,18.04
2016-06-06T12:12:18.270Z,17.94
2016-06-06T12:13:18.351Z,17.94
2016-06-06T12:14:18.384Z,17.85
2016-06-06T12:15:18.231Z,17.55
2016-06-06T12:16:18.421Z,17.46
2016-06-06T12:17:18.455Z,17.16
2016-06-06T12:18:18.489Z,17.16
2016-06-06T12:19:18.523Z,17.16
2016-06-06T12:20:18.416Z,16.86
2016-06-06T12:21:18.606Z,16.57
2016-06-06T12:22:18.640Z,16.77
2016-06-06T12:23:18.689Z,16.48
2016-06-06T12:24:18.724Z,16.67
2016-06-06T12:25:18.835Z,16.88
2016-06-06T12:26:18.807Z,16.48
2016-06-06T12:27:18.841Z,16.18
2016-06-06T12:28:18.874Z,16.48
2016-06-06T12:29:19.096Z,16.38
2016-06-06T12:30:19.911Z,16.28
2016-06-06T12:31:19.008Z,16.18
2016-06-06T12:32:19.058Z,16.28
2016-06-06T12:33:19.060Z,16.38
2016-06-06T12:34:19.109Z,16.39
2016-06-06T12:35:19.160Z,16.28
2016-06-06T12:36:19.193Z,15.99
2016-06-06T12:37:19.227Z,16.28
2016-06-06T12:38:19.307Z,15.99
2016-06-06T12:39:19.310Z,15.8
2016-06-06T12:40:19.345Z,15.8
2016-06-06T12:41:19.395Z,15.5
2016-06-06T12:42:19.428Z,15.41
2016-06-06T12:43:19.463Z,15.61
2016-06-06T12:44:19.512Z,15.31
2016-06-06T12:45:19.576Z,15.1
2016-06-06T12:46:19.579Z,15.2
2016-06-06T12:47:19.629Z,14.9
2016-06-06T12:48:19.664Z,15.4
2016-06-06T12:49:19.697Z,15.3
2016-06-06T12:50:19.778Z,15.4
2016-06-06T12:51:19.797Z,15.4
2016-06-06T12:52:19.830Z,15.21
2016-06-06T12:53:19.880Z,15.21
2016-06-06T12:54:19.914Z,14.91
2016-06-06T12:55:19.948Z,15.01
2016-06-06T12:56:19.981Z,14.81
2016-06-06T12:57:20.015Z,14.81
2016-06-06T12:58:20.065Z,14.61
2016-06-06T12:59:21.458Z,15.01
2016-06-06T13:00:20.617Z,14.81
2016-06-06T13:01:20.183Z,14.81
2016-06-06T13:02:20.216Z,14.91
2016-06-06T13:03:20.266Z,15.01
2016-06-06T13:04:20.299Z,14.72
2016-06-06T13:05:20.350Z,15.12
2016-06-06T13:06:20.243Z,14.32
2016-06-06T13:07:20.432Z,14.12
2016-06-06T13:08:20.452Z,13.82
2016-06-06T13:09:20.501Z,14.12
2016-06-06T13:10:20.535Z,14.22
2016-06-06T13:11:20.584Z,14.12
2016-06-06T13:12:20.634Z,13.83
2016-06-06T13:13:20.652Z,13.53
2016-06-06T13:14:21.343Z,13.43
2016-06-06T13:15:20.595Z,13.03
2016-06-06T13:16:20.785Z,13.14
2016-06-06T13:17:20.819Z,12.74
2016-06-06T13:18:20.869Z,12.74
2016-06-06T13:19:20.903Z,12.94
2016-06-06T13:20:20.953Z,12.74
2016-06-06T13:21:21.173Z,13.24
2016-06-06T13:22:21.020Z,13.04
2016-06-06T13:23:21.070Z,13.04
2016-06-06T13:24:21.103Z,13.04
2016-06-06T13:25:21.153Z,12.65
2016-06-06T13:26:21.187Z,12.35
2016-06-06T13:27:21.236Z,12.15
2016-06-06T13:28:21.271Z,11.75
2016-06-06T13:29:21.383Z,12.55
2016-06-06T13:30:21.635Z,12.55
2016-06-06T13:31:21.388Z,12.64
2016-06-06T13:32:21.422Z,12.94
2016-06-06T13:33:21.471Z,13.14
2016-06-06T13:34:21.521Z,13.33
2016-06-06T13:35:21.555Z,13.13
2016-06-06T13:36:21.589Z,12.63
2016-06-06T13:37:21.482Z,13.02
2016-06-06T13:38:21.688Z,13.22
2016-06-06T13:39:21.707Z,13.42
2016-06-06T13:40:21.756Z,13.71
2016-06-06T13:41:21.790Z,13.52
2016-06-06T13:42:21.839Z,13.62
2016-06-06T13:43:21.874Z,13.32
2016-06-06T13:44:22.455Z,12.83
2016-06-06T13:45:21.957Z,12.93
2016-06-06T13:46:21.990Z,12.93
2016-06-06T13:47:22.041Z,12.74
2016-06-06T13:48:22.075Z,12.34
2016-06-06T13:49:22.108Z,12.24
2016-06-06T13:50:22.158Z,11.94
2016-06-06T13:51:22.208Z,12.14
2016-06-06T13:52:22.242Z,11.93
2016-06-06T13:53:22.275Z,11.83
2016-06-06T13:54:22.309Z,12.04
2016-06-06T13:55:22.359Z,11.94
2016-06-06T13:56:22.408Z,11.94
2016-06-06T13:57:22.442Z,11.44
2016-06-06T13:58:22.491Z,11.54
2016-06-06T13:59:22.385Z,11.64
2016-06-06T14:00:22.841Z,11.54
2016-06-06T14:01:22.594Z,11.24
2016-06-06T14:02:22.659Z,11.24
2016-06-06T14:03:22.693Z,11.24
2016-06-06T14:04:22.727Z,10.75
2016-06-06T14:05:22.777Z,10.65
2016-06-06T14:06:22.811Z,10.95
2016-06-06T14:07:22.844Z,10.45
2016-06-06T14:08:22.894Z,10.55
2016-06-06T14:09:22.927Z,10.65
2016-06-06T14:10:22.977Z,10.55
2016-06-06T14:11:23.012Z,10.85
2016-06-06T14:12:23.061Z,10.36
2016-06-06T14:13:23.095Z,10.66
2016-06-06T14:14:23.457Z,10.46
2016-06-06T14:15:23.179Z,10.25
2016-06-06T14:16:23.229Z,10.36
2016-06-06T14:17:23.262Z,10.16
2016-06-06T14:18:23.420Z,10.06
2016-06-06T14:19:23.423Z,10.16
2016-06-06T14:20:23.379Z,9.87
2016-06-06T14:21:23.428Z,10.47
2016-06-06T14:22:23.462Z,10.27
2016-06-06T14:23:23.497Z,10.47
2016-06-06T14:24:23.547Z,10.47
2016-06-06T14:25:23.581Z,10.07
2016-06-06T14:26:23.630Z,9.47
2016-06-06T14:27:23.679Z,9.48
2016-06-06T14:28:23.729Z,9.08
2016-06-06T14:29:23.591Z,8.88
2016-06-06T14:30:23.796Z,9.08
2016-06-06T14:31:23.925Z,8.88
2016-06-06T14:32:23.880Z,8.89
2016-06-06T14:33:23.914Z,9.09
2016-06-06T14:34:23.948Z,8.69
2016-06-06T14:35:23.997Z,8.49
2016-06-06T14:36:24.047Z,8.09
2016-06-06T14:37:24.144Z,8.29
2016-06-06T14:38:24.162Z,7.5
2016-06-06T14:39:24.166Z,7.5
2016-06-06T14:40:24.215Z,7.5
2016-06-06T14:41:24.248Z,7.29
2016-06-06T14:42:24.282Z,7.39
2016-06-06T14:43:24.332Z,7.59
2016-06-06T14:44:24.366Z,7.5
2016-06-06T14:45:24.259Z,7.79
2016-06-06T14:46:24.449Z,7.29
2016-06-06T14:47:24.514Z,7.2
2016-06-06T14:48:24.549Z,7.1
2016-06-06T14:49:24.692Z,7.1
2016-06-06T14:50:24.616Z,7.4
2016-06-06T14:51:24.665Z,7.2
2016-06-06T14:52:24.700Z,7
2016-06-06T14:53:24.827Z,6.81
2016-06-06T14:54:24.627Z,6.41
2016-06-06T14:55:24.833Z,6.21
2016-06-06T14:56:24.867Z,6.41
2016-06-06T14:57:24.916Z,6.21
2016-06-06T14:58:24.967Z,6.41
2016-06-06T14:59:24.844Z,6.41
2016-06-06T15:00:25.409Z,5.61
2016-06-06T15:01:25.083Z,5.31
2016-06-06T15:02:25.117Z,5.31
2016-06-06T15:03:25.167Z,6.12
2016-06-06T15:04:25.200Z,6.12
2016-06-06T15:05:25.250Z,6.12
2016-06-06T15:06:25.285Z,6.12
2016-06-06T15:07:25.333Z,6.02
2016-06-06T15:08:25.369Z,5.71
2016-06-06T15:09:25.418Z,5.62
2016-06-06T15:10:25.451Z,5.11
2016-06-06T15:11:25.501Z,4.52
2016-06-06T15:12:25.566Z,4.21
2016-06-06T15:13:25.584Z,3.91
2016-06-06T15:14:25.634Z,4.21
2016-06-06T15:15:25.668Z,4.11
2016-06-06T15:16:25.607Z,3.61
2016-06-06T15:17:25.751Z,3.61
2016-06-06T15:18:25.785Z,3.71
2016-06-06T15:19:25.835Z,3.51
2016-06-06T15:20:25.869Z,3.61
2016-06-06T15:21:25.903Z,3.7
2016-06-06T15:22:25.953Z,3.3
2016-06-06T15:23:26.002Z,3.61
2016-06-06T15:24:26.037Z,3.91
2016-06-06T15:25:26.086Z,3.9
2016-06-06T15:26:26.119Z,4.1
2016-06-06T15:27:26.153Z,4.4
2016-06-06T15:28:26.203Z,4.6
2016-06-06T15:29:32.331Z,4.4
2016-06-06T15:30:26.237Z,4.5
2016-06-06T15:31:26.318Z,4.5
2016-06-06T15:32:26.367Z,4.99
2016-06-06T15:33:26.401Z,5.19
2016-06-06T15:34:26.450Z,5.29
2016-06-06T15:35:26.486Z,5.59
2016-06-06T15:36:26.534Z,5.99
2016-06-06T15:37:26.569Z,5.88
2016-06-06T15:38:26.618Z,6.68
2016-06-06T15:39:26.652Z,6.78
2016-06-06T15:40:26.702Z,6.68
2016-06-06T15:41:26.735Z,6.38
2016-06-06T15:42:26.800Z,6.78
2016-06-06T15:43:26.818Z,6.78
2016-06-06T15:44:26.868Z,6.77
2016-06-06T15:45:26.902Z,6.98
2016-06-06T15:46:26.952Z,7.07
2016-06-06T15:47:26.986Z,7.07
2016-06-06T15:48:27.035Z,7.07
2016-06-06T15:49:27.069Z,6.87
2016-06-06T15:50:27.182Z,7.17
2016-06-06T15:51:27.154Z,7.17
2016-06-06T15:52:27.202Z,6.97
2016-06-06T15:53:27.221Z,6.97
2016-06-06T15:54:27.270Z,6.87
2016-06-06T15:55:27.320Z,6.87
2016-06-06T15:56:27.354Z,7.17
2016-06-06T15:57:27.387Z,7.16
2016-06-06T15:58:27.437Z,7.06
2016-06-06T15:59:27.471Z,7.06
2016-06-06T16:00:27.521Z,7.16
2016-06-06T16:01:27.398Z,7.26
2016-06-06T16:02:27.589Z,7.06
2016-06-06T16:03:27.639Z,7.16
2016-06-06T16:04:27.672Z,7.26
2016-06-06T16:05:27.722Z,6.96
2016-06-06T16:06:27.865Z,7.15
2016-06-06T16:07:27.805Z,7.06
2016-06-06T16:08:27.855Z,7.35
2016-06-06T16:09:27.889Z,7.65
2016-06-06T16:10:27.923Z,7.45
2016-06-06T16:11:27.957Z,7.45
2016-06-06T16:12:28.006Z,7.55
2016-06-06T16:13:28.041Z,7.15
2016-06-06T16:14:27.997Z,7.05
2016-06-06T16:15:28.139Z,7.25
2016-06-06T16:16:28.174Z,7.05
2016-06-06T16:17:28.207Z,6.85
2016-06-06T16:18:28.257Z,7.75
2016-06-06T16:19:28.385Z,7.84
2016-06-06T16:20:28.325Z,7.74
2016-06-06T16:21:28.374Z,8.24
2016-06-06T16:22:28.408Z,8.54
2016-06-06T16:23:28.458Z,8.64
2016-06-06T16:24:28.507Z,8.64
2016-06-06T16:25:28.526Z,8.73
2016-06-06T16:26:28.669Z,8.53
2016-06-06T16:27:28.609Z,8.53
2016-06-06T16:28:28.659Z,8.93
2016-06-06T16:29:28.709Z,8.53
2016-06-06T16:30:28.586Z,8.33
2016-06-06T16:31:28.776Z,8.23
2016-06-06T16:32:28.826Z,8.43
2016-06-06T16:33:28.859Z,8.33
2016-06-06T16:34:28.894Z,8.43
2016-06-06T16:35:28.943Z,8.73
2016-06-06T16:36:28.978Z,8.93
2016-06-06T16:37:29.027Z,9.02
2016-06-06T16:38:29.061Z,9.02
2016-06-06T16:39:28.939Z,8.83
2016-06-06T16:40:29.160Z,9.22
2016-06-06T16:41:29.178Z,9.12
2016-06-06T16:42:29.212Z,8.83
2016-06-06T16:43:29.110Z,9.02
2016-06-06T16:44:29.290Z,9.22
2016-06-06T16:45:29.453Z,9.22
2016-06-06T16:46:29.399Z,9.02
2016-06-06T16:47:29.438Z,9.02
2016-06-06T16:48:29.490Z,9.41
2016-06-06T16:49:29.525Z,9.12
2016-06-06T16:50:29.559Z,8.92
2016-06-06T16:51:29.611Z,8.42
2016-06-06T16:52:29.646Z,8.71
2016-06-06T16:53:29.541Z,8.92
2016-06-06T16:54:29.732Z,9.21
2016-06-06T16:55:29.767Z,9.01
2016-06-06T16:56:29.817Z,9.21
2016-06-06T16:57:29.883Z,9.7
2016-06-06T16:58:29.902Z,9.6
2016-06-06T16:59:29.779Z,9.89
2016-06-06T17:00:30.220Z,9.89
2016-06-06T17:01:30.020Z,10
2016-06-06T17:02:30.070Z,9.8
2016-06-06T17:03:30.104Z,9.8
2016-06-06T17:04:30.138Z,9.69
2016-06-06T17:05:30.266Z,9.89
2016-06-06T17:06:30.221Z,10.09
2016-06-06T17:07:30.272Z,9.5
2016-06-06T17:08:30.289Z,9.39
2016-06-06T17:09:30.339Z,9.49
2016-06-06T17:10:30.373Z,9.98
2016-06-06T17:11:30.422Z,9.78
2016-06-06T17:12:30.456Z,9.78
2016-06-06T17:13:30.491Z,9.97
2016-06-06T17:14:31.477Z,9.97
2016-06-06T17:15:31.043Z,10.08
2016-06-06T17:16:30.624Z,10.17
2016-06-06T17:17:30.657Z,10.57
2016-06-06T17:18:30.691Z,10.47
2016-06-06T17:19:30.569Z,10.66
2016-06-06T17:20:30.618Z,10.85
2016-06-06T17:21:30.809Z,10.66
2016-06-06T17:22:30.843Z,10.65
2016-06-06T17:23:30.893Z,10.65
2016-06-06T17:24:30.926Z,10.65
2016-06-06T17:25:30.960Z,10.55
2016-06-06T17:26:31.009Z,10.75
2016-06-06T17:27:31.043Z,11.04
2016-06-06T17:28:31.093Z,11.04
2016-06-06T17:29:31.142Z,11.04
2016-06-06T17:30:31.162Z,11.13
2016-06-06T17:31:31.039Z,11.23
2016-06-06T17:32:31.244Z,11.43
2016-06-06T17:33:31.279Z,11.43
2016-06-06T17:34:31.312Z,11.13
2016-06-06T17:35:31.377Z,11.23
2016-06-06T17:36:31.395Z,11.22
2016-06-06T17:37:31.430Z,11.52
2016-06-06T17:38:31.463Z,11.61
2016-06-06T17:39:31.514Z,11.51
2016-06-06T17:40:31.547Z,11.61
2016-06-06T17:41:31.596Z,11.61
2016-06-06T17:42:31.631Z,11.41
2016-06-06T17:43:31.680Z,11.51
2016-06-06T17:44:31.699Z,11.7
2016-06-06T17:45:31.748Z,11.7
2016-06-06T17:46:31.783Z,11.41
2016-06-06T17:47:31.816Z,11.5
2016-06-06T17:48:31.849Z,11.99
2016-06-06T17:49:31.885Z,11.99
2016-06-06T17:50:31.933Z,11.7
2016-06-06T17:51:31.967Z,12.09
2016-06-06T17:52:32.017Z,12.29
2016-06-06T17:53:32.051Z,12.18
2016-06-06T17:54:32.085Z,12.58
2016-06-06T17:55:32.134Z,12.38
2016-06-06T17:56:32.168Z,12.77
2016-06-06T17:57:32.202Z,13.07
2016-06-06T17:58:32.236Z,12.87
2016-06-06T17:59:32.270Z,12.77
2016-06-06T18:00:33.054Z,12.96
2016-06-06T18:01:32.354Z,13.26
2016-06-06T18:02:32.387Z,13.55
2016-06-06T18:03:32.437Z,13.35
2016-06-06T18:04:32.471Z,13.94
2016-06-06T18:05:32.505Z,13.94
2016-06-06T18:06:32.539Z,13.84
2016-06-06T18:07:32.573Z,13.54
2016-06-06T18:08:32.622Z,13.64
2016-06-06T18:09:32.656Z,13.84
2016-06-06T18:10:32.691Z,13.93
2016-06-06T18:11:32.739Z,13.84
2016-06-06T18:12:32.774Z,14.03
2016-06-06T18:13:32.808Z,13.82
2016-06-06T18:14:33.342Z,14.12
2016-06-06T18:15:32.954Z,14.51
2016-06-06T18:16:32.925Z,14.81
2016-06-06T18:17:32.960Z,14.71
2016-06-06T18:18:32.993Z,14.51
2016-06-06T18:19:33.043Z,14.61
2016-06-06T18:20:33.061Z,15
2016-06-06T18:21:33.096Z,14.61
2016-06-06T18:22:33.144Z,14.7
2016-06-06T18:23:33.194Z,14.99
2016-06-06T18:24:33.212Z,15.09
2016-06-06T18:25:33.263Z,15.28
2016-06-06T18:26:33.279Z,15.09
2016-06-06T18:27:33.329Z,15.19
2016-06-06T18:28:33.364Z,14.89
2016-06-06T18:29:33.460Z,14.99
2016-06-06T18:30:33.822Z,15.08
2016-06-06T18:31:33.310Z,15.08
2016-06-06T18:32:33.515Z,15.28
2016-06-06T18:33:33.548Z,15.08
2016-06-06T18:34:33.583Z,15.28
2016-06-06T18:35:33.617Z,15.37
2016-06-06T18:36:33.651Z,15.37
2016-06-06T18:37:33.700Z,15.27
2016-06-06T18:38:33.734Z,15.56
2016-06-06T18:39:33.862Z,15.47
2016-06-06T18:40:33.802Z,15.47
2016-06-06T18:41:33.836Z,16.05
2016-06-06T18:42:33.886Z,16.05
2016-06-06T18:43:33.919Z,16.14
2016-06-06T18:44:34.189Z,16.14
2016-06-06T18:45:34.081Z,16.05
2016-06-06T18:46:34.022Z,16.05
2016-06-06T18:47:34.055Z,16.63
2016-06-06T18:48:34.089Z,16.24
2016-06-06T18:49:34.139Z,16.24
2016-06-06T18:50:34.173Z,16.93
2016-06-06T18:51:34.207Z,16.42
2016-06-06T18:52:34.241Z,16.52
2016-06-06T18:53:34.275Z,16.82
2016-06-06T18:54:34.324Z,16.72
2016-06-06T18:55:34.342Z,16.62
2016-06-06T18:56:34.377Z,16.52
2016-06-06T18:57:34.426Z,16.92
2016-06-06T18:58:34.460Z,17
2016-06-06T18:59:35.088Z,17.4
2016-06-06T19:00:34.496Z,17.59
2016-06-06T19:01:34.561Z,17.3
2016-06-06T19:02:34.611Z,17.3
2016-06-06T19:03:34.629Z,17.58
2016-06-06T19:04:34.679Z,17.58
2016-06-06T19:05:34.713Z,17.58
2016-06-06T19:06:34.794Z,18.07
2016-06-06T19:07:34.797Z,17.78
2016-06-06T19:08:34.815Z,18.46
2016-06-06T19:09:34.880Z,18.56
2016-06-06T19:10:34.898Z,18.27
2016-06-06T19:11:34.964Z,18.27
2016-06-06T19:12:34.967Z,18.56
2016-06-06T19:13:35.000Z,18.36
2016-06-06T19:14:35.097Z,18.46
2016-06-06T19:15:35.068Z,18.36
2016-06-06T19:16:36.056Z,18.85
2016-06-06T19:17:35.136Z,18.95
2016-06-06T19:18:35.170Z,18.95
2016-06-06T19:19:35.204Z,18.93
2016-06-06T19:20:35.238Z,18.93
2016-06-06T19:21:35.288Z,18.93
2016-06-06T19:22:35.166Z,19.32
2016-06-06T19:23:35.355Z,19.23
2016-06-06T19:24:35.390Z,19.03
2016-06-06T19:25:35.423Z,19.31
2016-06-06T19:26:35.457Z,19.31
2016-06-06T19:27:35.491Z,19.7
2016-06-06T19:28:35.525Z,19.6
2016-06-06T19:29:35.574Z,19.7
2016-06-06T19:30:35.593Z,19.7
2016-06-06T19:31:35.643Z,19.6
2016-06-06T19:32:35.661Z,19.79
2016-06-06T19:33:35.710Z,20.29
2016-06-06T19:34:36.182Z,20.18
2016-06-06T19:35:36.294Z,20.38
2016-06-06T19:36:35.812Z,20.48
2016-06-06T19:37:35.846Z,20.28
2016-06-06T19:38:35.865Z,20.38
2016-06-06T19:39:35.914Z,20.77
2016-06-06T19:40:35.948Z,20.47
2016-06-06T19:41:35.982Z,20.76
2016-06-06T19:42:36.016Z,20.76
2016-06-06T19:43:36.050Z,20.66
2016-06-06T19:44:36.084Z,21.05
2016-06-06T19:50:32.646Z,21.33
2016-06-06T19:51:32.477Z,21.62
2016-06-06T19:52:32.355Z,21.33
2016-06-06T19:53:32.389Z,21.33
2016-06-06T19:54:32.579Z,21.82
2016-06-06T19:55:32.613Z,21.92
2016-06-06T19:56:32.647Z,21.51
2016-06-06T19:57:32.682Z,21.91
2016-06-06T19:58:32.715Z,22.11
2016-06-06T19:59:32.749Z,22.2
2016-06-06T20:00:32.767Z,22
2016-06-06T20:01:32.817Z,22.3
2016-06-06T20:02:32.851Z,22
2016-06-06T20:03:32.884Z,22
2016-06-06T20:04:32.762Z,22.59
2016-06-06T20:05:33.016Z,22.48
2016-06-06T20:06:32.986Z,22.39
2016-06-06T20:07:33.021Z,22.28
2016-06-06T20:08:33.054Z,23.07
2016-06-06T20:09:33.089Z,22.97
2016-06-06T20:10:33.122Z,23.16
2016-06-06T20:11:33.156Z,23.07
2016-06-06T20:12:33.190Z,22.77
2016-06-06T20:13:33.224Z,22.56
2016-06-06T20:14:33.258Z,22.58
2016-06-06T20:15:33.292Z,22.86
2016-06-06T20:16:33.325Z,22.86
2016-06-06T20:17:33.360Z,23.25
2016-06-06T20:18:33.394Z,23.35
2016-06-06T20:19:34.116Z,23.63
2016-06-06T20:20:33.461Z,23.54
2016-06-06T20:21:33.497Z,23.73
2016-06-06T20:22:33.530Z,23.63
2016-06-06T20:23:33.563Z,23.62
2016-06-06T20:24:33.597Z,23.52
2016-06-06T20:25:33.632Z,23.82
2016-06-06T20:26:33.649Z,23.82
2016-06-06T20:27:33.527Z,23.62
2016-06-06T20:28:33.718Z,23.91
2016-06-06T20:29:33.752Z,24.11
2016-06-06T20:30:33.785Z,24.11
2016-06-06T20:31:33.820Z,24.49
2016-06-06T20:32:33.869Z,24.39
2016-06-06T20:33:33.888Z,23.8
2016-06-06T20:34:33.922Z,24.1
2016-06-06T20:35:34.127Z,24.19
2016-06-06T20:36:33.989Z,24.19
2016-06-06T20:37:34.023Z,24.58
2016-06-06T20:38:34.057Z,24.29
2016-06-06T20:39:34.091Z,24.19
2016-06-06T20:40:34.125Z,24.39
2016-06-06T20:41:34.159Z,24.49
2016-06-06T20:42:34.365Z,24.67
2016-06-06T20:43:34.227Z,25.05
2016-06-06T20:44:34.261Z,24.77
2016-06-06T20:45:34.388Z,24.87
2016-06-06T20:46:34.422Z,25.05
2016-06-06T20:47:34.738Z,25.25
2016-06-06T20:48:34.444Z,25.15
2016-06-06T20:49:34.508Z,25.35
2016-06-06T20:50:35.558Z,25.05
2016-06-06T20:51:34.529Z,25.25
2016-06-06T20:52:34.376Z,25.15
2016-06-06T20:53:34.644Z,25.24
2016-06-06T20:54:34.678Z,25.24
2016-06-06T20:55:34.696Z,25.04
2016-06-06T20:56:34.699Z,25.63
2016-06-06T20:57:34.780Z,25.73
2016-06-06T20:58:34.721Z,25.43
2016-06-06T20:59:34.738Z,25.34
2016-06-06T21:00:34.773Z,25.82
2016-06-06T21:01:34.807Z,25.73
2016-06-06T21:02:34.841Z,25.92
2016-06-06T21:03:34.875Z,25.73
2016-06-06T21:04:34.908Z,26.01
2016-06-06T21:05:34.926Z,26
2016-06-06T21:06:34.977Z,26.2
2016-06-06T21:07:34.995Z,26.2
2016-06-06T21:08:35.028Z,26.29
2016-06-06T21:09:35.062Z,26.49
2016-06-06T21:10:35.096Z,26.68
2016-06-06T21:11:35.131Z,26.49
2016-06-06T21:12:35.164Z,26.38
2016-06-06T21:13:35.198Z,26.39
2016-06-06T21:14:35.232Z,26.29
2016-06-06T21:15:35.267Z,26.76
2016-06-06T21:16:35.300Z,26.96
2016-06-06T21:17:35.334Z,26.86
2016-06-06T21:18:35.352Z,26.76
2016-06-06T21:19:35.387Z,27.15
2016-06-06T21:20:35.419Z,27.06
2016-06-06T21:21:35.454Z,27.06
2016-06-06T21:22:35.488Z,27.06
2016-06-06T21:23:35.522Z,26.96
2016-06-06T21:24:35.540Z,26.96
2016-06-06T21:25:35.590Z,27.15
2016-06-06T21:26:38.468Z,27.33
2016-06-06T21:27:35.658Z,27.24
2016-06-06T21:28:35.676Z,27.04
2016-06-06T21:29:35.710Z,27.04
2016-06-06T21:30:35.744Z,27.53
2016-06-06T21:31:35.777Z,27.24
2016-06-06T21:32:35.812Z,27.14
2016-06-06T21:33:35.845Z,27.62
2016-06-06T21:34:35.864Z,27.24
2016-06-06T21:35:36.648Z,27.62
2016-06-06T21:36:35.932Z,27.53
2016-06-06T21:37:35.965Z,27.82
2016-06-06T21:38:36.250Z,27.61
2016-06-06T21:39:36.018Z,28
2016-06-06T21:40:36.052Z,27.61
2016-06-06T21:41:36.086Z,27.51
2016-06-06T21:42:36.136Z,27.51
2016-06-06T21:43:36.153Z,27.81
2016-06-06T21:44:36.187Z,28
2016-06-06T21:45:36.331Z,27.91
2016-06-06T21:46:36.364Z,28.09